sensor_id;sensor_type;location;lat;lon;timestamp;temperature;humidity
43920;DHT22;29578;51.946;5.874;2022-12-29T00:01:31;11.00;92.40
43920;DHT22;29578;51.946;5.874;2022-12-29T00:03:57;11.00;92.30
43920;DHT22;29578;51.946;5.874;2022-12-29T00:06:22;11.00;92.30
43920;DHT22;29578;51.946;5.874;2022-12-29T00:08:48;11.00;92.30
43920;DHT22;29578;51.946;5.874;2022-12-29T00:11:16;10.90;92.30
43920;DHT22;29578;51.946;5.874;2022-12-29T00:13:43;11.00;92.30
43920;DHT22;29578;51.946;5.874;2022-12-29T00:16:25;11.00;92.40
43920;DHT22;29578;51.946;5.874;2022-12-29T00:18:51;11.00;92.30
43920;DHT22;29578;51.946;5.874;2022-12-29T00:21:19;11.00;92.30
43920;DHT22;29578;51.946;5.874;2022-12-29T00:24:05;11.00;92.30
43920;DHT22;29578;51.946;5.874;2022-12-29T00:26:46;11.00;92.40
43920;DHT22;29578;51.946;5.874;2022-12-29T00:29:25;11.10;92.40
43920;DHT22;29578;51.946;5.874;2022-12-29T00:32:07;11.00;92.40
43920;DHT22;29578;51.946;5.874;2022-12-29T00:34:45;11.00;92.40
43920;DHT22;29578;51.946;5.874;2022-12-29T00:37:25;11.00;92.30
43920;DHT22;29578;51.946;5.874;2022-12-29T00:40:11;11.00;92.30
43920;DHT22;29578;51.946;5.874;2022-12-29T00:42:56;11.00;92.30
43920;DHT22;29578;51.946;5.874;2022-12-29T00:45:36;11.00;92.30
43920;DHT22;29578;51.946;5.874;2022-12-29T00:48:01;11.00;92.30
43920;DHT22;29578;51.946;5.874;2022-12-29T00:50:27;11.00;92.30
43920;DHT22;29578;51.946;5.874;2022-12-29T00:52:53;11.00;92.30
43920;DHT22;29578;51.946;5.874;2022-12-29T00:55:18;11.00;92.30
43920;DHT22;29578;51.946;5.874;2022-12-29T00:57:44;11.00;92.30
43920;DHT22;29578;51.946;5.874;2022-12-29T01:00:10;11.10;92.30
43920;DHT22;29578;51.946;5.874;2022-12-29T01:02:36;11.00;92.30
43920;DHT22;29578;51.946;5.874;2022-12-29T01:05:01;11.00;92.30
43920;DHT22;29578;51.946;5.874;2022-12-29T01:07:27;11.00;92.30
43920;DHT22;29578;51.946;5.874;2022-12-29T01:09:52;11.00;92.30
43920;DHT22;29578;51.946;5.874;2022-12-29T01:12:38;11.00;92.30
43920;DHT22;29578;51.946;5.874;2022-12-29T01:15:08;11.00;92.30
43920;DHT22;29578;51.946;5.874;2022-12-29T01:17:34;11.10;92.30
43920;DHT22;29578;51.946;5.874;2022-12-29T01:20:01;11.10;92.30
43920;DHT22;29578;51.946;5.874;2022-12-29T01:22:27;11.00;92.20
43920;DHT22;29578;51.946;5.874;2022-12-29T01:24:52;11.00;92.20
43920;DHT22;29578;51.946;5.874;2022-12-29T01:27:18;11.10;92.20
43920;DHT22;29578;51.946;5.874;2022-12-29T01:29:44;11.00;92.50
43920;DHT22;29578;51.946;5.874;2022-12-29T01:32:09;11.00;92.20
43920;DHT22;29578;51.946;5.874;2022-12-29T01:34:35;11.00;92.30
43920;DHT22;29578;51.946;5.874;2022-12-29T01:37:01;11.00;92.30
43920;DHT22;29578;51.946;5.874;2022-12-29T01:39:26;10.90;92.30
43920;DHT22;29578;51.946;5.874;2022-12-29T01:41:52;10.80;92.30
43920;DHT22;29578;51.946;5.874;2022-12-29T01:44:52;10.80;92.30
43920;DHT22;29578;51.946;5.874;2022-12-29T01:47:38;10.70;92.40
43920;DHT22;29578;51.946;5.874;2022-12-29T01:50:30;10.80;92.40
43920;DHT22;29578;51.946;5.874;2022-12-29T01:53:03;10.90;92.40
43920;DHT22;29578;51.946;5.874;2022-12-29T01:55:34;10.80;92.40
43920;DHT22;29578;51.946;5.874;2022-12-29T01:58:03;10.80;92.40
43920;DHT22;29578;51.946;5.874;2022-12-29T02:00:30;10.80;92.40
43920;DHT22;29578;51.946;5.874;2022-12-29T02:02:55;10.80;92.40
43920;DHT22;29578;51.946;5.874;2022-12-29T02:05:29;10.80;92.40
43920;DHT22;29578;51.946;5.874;2022-12-29T02:07:57;10.80;92.40
43920;DHT22;29578;51.946;5.874;2022-12-29T02:10:25;10.80;92.40
43920;DHT22;29578;51.946;5.874;2022-12-29T02:12:52;10.90;92.40
43920;DHT22;29578;51.946;5.874;2022-12-29T02:15:25;10.90;92.40
43920;DHT22;29578;51.946;5.874;2022-12-29T02:18:15;10.90;92.30
43920;DHT22;29578;51.946;5.874;2022-12-29T02:21:45;11.00;92.30
43920;DHT22;29578;51.946;5.874;2022-12-29T02:24:17;11.10;92.30
43920;DHT22;29578;51.946;5.874;2022-12-29T02:30:25;11.10;92.20
43920;DHT22;29578;51.946;5.874;2022-12-29T02:32:59;11.20;92.20
43920;DHT22;29578;51.946;5.874;2022-12-29T02:35:37;11.10;92.20
43920;DHT22;29578;51.946;5.874;2022-12-29T02:38:18;11.20;92.10
43920;DHT22;29578;51.946;5.874;2022-12-29T02:40:56;11.20;92.10
43920;DHT22;29578;51.946;5.874;2022-12-29T02:43:37;11.20;92.00
43920;DHT22;29578;51.946;5.874;2022-12-29T02:46:17;11.20;92.00
43920;DHT22;29578;51.946;5.874;2022-12-29T02:48:52;11.40;92.00
43920;DHT22;29578;51.946;5.874;2022-12-29T02:51:26;11.40;91.90
43920;DHT22;29578;51.946;5.874;2022-12-29T02:53:53;11.40;91.80
43920;DHT22;29578;51.946;5.874;2022-12-29T02:56:32;11.50;91.70
43920;DHT22;29578;51.946;5.874;2022-12-29T02:58:58;11.50;91.70
43920;DHT22;29578;51.946;5.874;2022-12-29T03:01:34;11.50;91.70
43920;DHT22;29578;51.946;5.874;2022-12-29T03:04:23;11.50;91.60
43920;DHT22;29578;51.946;5.874;2022-12-29T03:07:09;11.50;91.60
43920;DHT22;29578;51.946;5.874;2022-12-29T03:09:47;11.50;91.80
43920;DHT22;29578;51.946;5.874;2022-12-29T03:12:31;11.60;91.40
43920;DHT22;29578;51.946;5.874;2022-12-29T03:15:22;11.70;91.30
43920;DHT22;29578;51.946;5.874;2022-12-29T03:18:15;11.70;91.20
43920;DHT22;29578;51.946;5.874;2022-12-29T03:20:53;11.70;91.20
43920;DHT22;29578;51.946;5.874;2022-12-29T03:23:21;11.70;91.20
43920;DHT22;29578;51.946;5.874;2022-12-29T03:25:51;11.70;91.20
43920;DHT22;29578;51.946;5.874;2022-12-29T03:28:22;11.70;91.20
43920;DHT22;29578;51.946;5.874;2022-12-29T03:30:48;11.60;91.10
43920;DHT22;29578;51.946;5.874;2022-12-29T03:33:18;11.70;91.20
43920;DHT22;29578;51.946;5.874;2022-12-29T03:35:48;11.70;91.10
43920;DHT22;29578;51.946;5.874;2022-12-29T03:40:59;11.60;91.00
43920;DHT22;29578;51.946;5.874;2022-12-29T03:43:26;11.60;91.00
43920;DHT22;29578;51.946;5.874;2022-12-29T03:45:52;11.60;91.00
43920;DHT22;29578;51.946;5.874;2022-12-29T03:48:18;11.60;91.00
43920;DHT22;29578;51.946;5.874;2022-12-29T03:50:43;11.60;91.10
43920;DHT22;29578;51.946;5.874;2022-12-29T03:53:09;11.60;91.10
43920;DHT22;29578;51.946;5.874;2022-12-29T03:55:35;11.50;91.10
43920;DHT22;29578;51.946;5.874;2022-12-29T03:58:00;11.60;91.10
43920;DHT22;29578;51.946;5.874;2022-12-29T04:00:26;11.50;91.10
43920;DHT22;29578;51.946;5.874;2022-12-29T04:02:52;11.50;91.10
43920;DHT22;29578;51.946;5.874;2022-12-29T04:05:17;11.60;91.10
43920;DHT22;29578;51.946;5.874;2022-12-29T04:07:43;11.50;91.00
43920;DHT22;29578;51.946;5.874;2022-12-29T04:10:09;11.50;91.00
43920;DHT22;29578;51.946;5.874;2022-12-29T04:12:34;11.60;91.00
43920;DHT22;29578;51.946;5.874;2022-12-29T04:15:00;11.60;91.00
43920;DHT22;29578;51.946;5.874;2022-12-29T04:17:25;11.50;90.90
43920;DHT22;29578;51.946;5.874;2022-12-29T04:19:51;11.50;91.00
43920;DHT22;29578;51.946;5.874;2022-12-29T04:22:37;11.50;90.90
43920;DHT22;29578;51.946;5.874;2022-12-29T04:25:02;11.50;91.00
43920;DHT22;29578;51.946;5.874;2022-12-29T04:27:28;11.40;91.00
43920;DHT22;29578;51.946;5.874;2022-12-29T04:29:53;11.40;91.00
43920;DHT22;29578;51.946;5.874;2022-12-29T04:32:19;11.40;91.10
43920;DHT22;29578;51.946;5.874;2022-12-29T04:34:45;11.40;91.10
43920;DHT22;29578;51.946;5.874;2022-12-29T04:37:10;11.30;91.00
43920;DHT22;29578;51.946;5.874;2022-12-29T04:39:36;11.20;91.10
43920;DHT22;29578;51.946;5.874;2022-12-29T04:42:01;11.20;91.20
43920;DHT22;29578;51.946;5.874;2022-12-29T04:44:27;11.10;91.20
43920;DHT22;29578;51.946;5.874;2022-12-29T04:46:52;11.10;91.30
43920;DHT22;29578;51.946;5.874;2022-12-29T04:49:18;11.00;91.40
43920;DHT22;29578;51.946;5.874;2022-12-29T04:51:44;10.90;91.40
43920;DHT22;29578;51.946;5.874;2022-12-29T04:54:09;10.90;91.50
43920;DHT22;29578;51.946;5.874;2022-12-29T04:56:35;10.90;91.60
43920;DHT22;29578;51.946;5.874;2022-12-29T04:59:01;10.80;91.60
43920;DHT22;29578;51.946;5.874;2022-12-29T05:01:26;10.80;91.70
43920;DHT22;29578;51.946;5.874;2022-12-29T05:03:52;10.70;91.70
43920;DHT22;29578;51.946;5.874;2022-12-29T05:06:17;10.70;91.70
43920;DHT22;29578;51.946;5.874;2022-12-29T05:08:43;10.60;91.70
43920;DHT22;29578;51.946;5.874;2022-12-29T05:11:09;10.50;91.70
43920;DHT22;29578;51.946;5.874;2022-12-29T05:13:34;10.50;91.80
43920;DHT22;29578;51.946;5.874;2022-12-29T05:16:00;10.50;91.90
43920;DHT22;29578;51.946;5.874;2022-12-29T05:18:25;10.40;91.90
43920;DHT22;29578;51.946;5.874;2022-12-29T05:20:51;10.40;91.90
43920;DHT22;29578;51.946;5.874;2022-12-29T05:23:17;10.40;91.90
43920;DHT22;29578;51.946;5.874;2022-12-29T05:25:43;10.40;91.90
43920;DHT22;29578;51.946;5.874;2022-12-29T05:28:10;10.40;91.90
43920;DHT22;29578;51.946;5.874;2022-12-29T05:30:36;10.40;91.90
43920;DHT22;29578;51.946;5.874;2022-12-29T05:33:02;10.30;91.90
43920;DHT22;29578;51.946;5.874;2022-12-29T05:35:27;10.20;92.00
43920;DHT22;29578;51.946;5.874;2022-12-29T05:37:53;10.10;92.00
43920;DHT22;29578;51.946;5.874;2022-12-29T05:40:18;10.10;92.10
43920;DHT22;29578;51.946;5.874;2022-12-29T05:42:44;10.00;92.10
43920;DHT22;29578;51.946;5.874;2022-12-29T05:45:10;10.00;92.40
43920;DHT22;29578;51.946;5.874;2022-12-29T05:47:35;10.00;92.30
43920;DHT22;29578;51.946;5.874;2022-12-29T05:50:01;9.90;92.30
43920;DHT22;29578;51.946;5.874;2022-12-29T05:52:27;9.80;92.30
43920;DHT22;29578;51.946;5.874;2022-12-29T05:54:53;9.70;92.30
43920;DHT22;29578;51.946;5.874;2022-12-29T05:57:18;9.80;92.60
43920;DHT22;29578;51.946;5.874;2022-12-29T05:59:44;9.80;92.40
43920;DHT22;29578;51.946;5.874;2022-12-29T06:02:10;9.80;92.40
43920;DHT22;29578;51.946;5.874;2022-12-29T06:04:35;9.90;92.30
43920;DHT22;29578;51.946;5.874;2022-12-29T06:07:01;9.90;92.20
43920;DHT22;29578;51.946;5.874;2022-12-29T06:09:27;9.90;92.20
43920;DHT22;29578;51.946;5.874;2022-12-29T06:11:52;9.90;92.10
43920;DHT22;29578;51.946;5.874;2022-12-29T06:14:18;10.00;92.10
43920;DHT22;29578;51.946;5.874;2022-12-29T06:16:44;10.00;92.00
43920;DHT22;29578;51.946;5.874;2022-12-29T06:19:09;10.10;92.00
43920;DHT22;29578;51.946;5.874;2022-12-29T06:21:35;10.00;92.00
43920;DHT22;29578;51.946;5.874;2022-12-29T06:24:00;10.00;91.90
43920;DHT22;29578;51.946;5.874;2022-12-29T06:26:26;9.90;91.80
43920;DHT22;29578;51.946;5.874;2022-12-29T06:28:52;10.00;91.80
43920;DHT22;29578;51.946;5.874;2022-12-29T06:31:17;9.90;91.80
43920;DHT22;29578;51.946;5.874;2022-12-29T06:33:43;9.90;91.80
43920;DHT22;29578;51.946;5.874;2022-12-29T06:36:08;9.90;91.80
43920;DHT22;29578;51.946;5.874;2022-12-29T06:38:34;9.90;91.70
43920;DHT22;29578;51.946;5.874;2022-12-29T06:41:00;9.90;91.70
43920;DHT22;29578;51.946;5.874;2022-12-29T06:43:26;9.90;91.70
43920;DHT22;29578;51.946;5.874;2022-12-29T06:45:51;10.00;91.60
43920;DHT22;29578;51.946;5.874;2022-12-29T06:48:17;10.00;91.60
43920;DHT22;29578;51.946;5.874;2022-12-29T06:50:43;10.00;91.50
43920;DHT22;29578;51.946;5.874;2022-12-29T06:53:08;10.10;91.50
43920;DHT22;29578;51.946;5.874;2022-12-29T06:55:34;10.00;91.40
43920;DHT22;29578;51.946;5.874;2022-12-29T06:57:59;10.10;91.40
43920;DHT22;29578;51.946;5.874;2022-12-29T07:00:26;10.10;91.30
43920;DHT22;29578;51.946;5.874;2022-12-29T07:02:52;10.10;91.30
43920;DHT22;29578;51.946;5.874;2022-12-29T07:05:19;10.00;91.20
43920;DHT22;29578;51.946;5.874;2022-12-29T07:07:45;10.10;91.20
43920;DHT22;29578;51.946;5.874;2022-12-29T07:10:11;10.10;91.20
43920;DHT22;29578;51.946;5.874;2022-12-29T07:12:36;10.10;91.10
43920;DHT22;29578;51.946;5.874;2022-12-29T07:15:02;10.20;91.10
43920;DHT22;29578;51.946;5.874;2022-12-29T07:17:28;10.20;91.00
43920;DHT22;29578;51.946;5.874;2022-12-29T07:19:54;10.20;91.00
43920;DHT22;29578;51.946;5.874;2022-12-29T07:22:19;10.20;91.00
43920;DHT22;29578;51.946;5.874;2022-12-29T07:24:45;10.20;90.90
43920;DHT22;29578;51.946;5.874;2022-12-29T07:27:10;10.30;90.90
43920;DHT22;29578;51.946;5.874;2022-12-29T07:29:37;10.20;90.80
43920;DHT22;29578;51.946;5.874;2022-12-29T07:32:04;10.20;90.80
43920;DHT22;29578;51.946;5.874;2022-12-29T07:34:29;10.30;90.80
43920;DHT22;29578;51.946;5.874;2022-12-29T07:36:55;10.30;90.80
43920;DHT22;29578;51.946;5.874;2022-12-29T07:39:21;10.30;90.70
43920;DHT22;29578;51.946;5.874;2022-12-29T07:41:46;10.30;90.70
43920;DHT22;29578;51.946;5.874;2022-12-29T07:44:12;10.30;90.60
43920;DHT22;29578;51.946;5.874;2022-12-29T07:46:37;10.30;90.60
43920;DHT22;29578;51.946;5.874;2022-12-29T07:49:03;10.30;90.50
43920;DHT22;29578;51.946;5.874;2022-12-29T07:51:29;10.30;90.40
43920;DHT22;29578;51.946;5.874;2022-12-29T07:53:54;10.30;90.50
43920;DHT22;29578;51.946;5.874;2022-12-29T07:56:20;10.30;90.40
43920;DHT22;29578;51.946;5.874;2022-12-29T07:58:45;10.40;90.30
43920;DHT22;29578;51.946;5.874;2022-12-29T08:01:11;10.40;90.20
43920;DHT22;29578;51.946;5.874;2022-12-29T08:03:37;10.50;90.20
43920;DHT22;29578;51.946;5.874;2022-12-29T08:06:03;10.40;90.10
43920;DHT22;29578;51.946;5.874;2022-12-29T08:08:29;10.40;90.10
43920;DHT22;29578;51.946;5.874;2022-12-29T08:10:54;10.40;90.10
43920;DHT22;29578;51.946;5.874;2022-12-29T08:13:20;10.40;90.10
43920;DHT22;29578;51.946;5.874;2022-12-29T08:15:46;10.30;90.10
43920;DHT22;29578;51.946;5.874;2022-12-29T08:18:11;10.30;90.10
43920;DHT22;29578;51.946;5.874;2022-12-29T08:20:37;10.30;90.20
43920;DHT22;29578;51.946;5.874;2022-12-29T08:23:02;10.30;90.20
43920;DHT22;29578;51.946;5.874;2022-12-29T08:25:28;10.30;90.20
43920;DHT22;29578;51.946;5.874;2022-12-29T08:27:54;10.30;90.10
43920;DHT22;29578;51.946;5.874;2022-12-29T08:30:19;10.30;90.10
43920;DHT22;29578;51.946;5.874;2022-12-29T08:32:45;10.30;90.10
43920;DHT22;29578;51.946;5.874;2022-12-29T08:35:11;10.30;90.00
43920;DHT22;29578;51.946;5.874;2022-12-29T08:37:38;10.30;90.20
43920;DHT22;29578;51.946;5.874;2022-12-29T08:40:04;10.30;89.90
43920;DHT22;29578;51.946;5.874;2022-12-29T08:42:31;10.30;89.80
43920;DHT22;29578;51.946;5.874;2022-12-29T08:44:57;10.40;89.70
43920;DHT22;29578;51.946;5.874;2022-12-29T08:47:23;10.40;89.50
43920;DHT22;29578;51.946;5.874;2022-12-29T08:49:49;10.40;89.40
43920;DHT22;29578;51.946;5.874;2022-12-29T08:52:14;10.50;89.10
43920;DHT22;29578;51.946;5.874;2022-12-29T08:54:40;10.50;89.00
43920;DHT22;29578;51.946;5.874;2022-12-29T08:57:06;10.50;88.90
43920;DHT22;29578;51.946;5.874;2022-12-29T08:59:31;10.50;88.80
43920;DHT22;29578;51.946;5.874;2022-12-29T09:01:57;10.50;88.70
43920;DHT22;29578;51.946;5.874;2022-12-29T09:04:23;10.60;88.70
43920;DHT22;29578;51.946;5.874;2022-12-29T09:06:48;10.60;88.70
43920;DHT22;29578;51.946;5.874;2022-12-29T09:09:14;10.60;88.70
43920;DHT22;29578;51.946;5.874;2022-12-29T09:11:41;10.50;88.60
43920;DHT22;29578;51.946;5.874;2022-12-29T09:14:07;10.60;88.60
43920;DHT22;29578;51.946;5.874;2022-12-29T09:16:33;10.50;88.50
43920;DHT22;29578;51.946;5.874;2022-12-29T09:18:59;10.50;88.50
43920;DHT22;29578;51.946;5.874;2022-12-29T09:21:25;10.40;88.70
43920;DHT22;29578;51.946;5.874;2022-12-29T09:23:51;10.30;88.80
43920;DHT22;29578;51.946;5.874;2022-12-29T09:26:17;10.30;89.70
43920;DHT22;29578;51.946;5.874;2022-12-29T09:28:42;10.20;89.10
43920;DHT22;29578;51.946;5.874;2022-12-29T09:31:09;10.20;89.10
43920;DHT22;29578;51.946;5.874;2022-12-29T09:33:54;10.20;89.10
43920;DHT22;29578;51.946;5.874;2022-12-29T09:36:19;10.20;89.10
43920;DHT22;29578;51.946;5.874;2022-12-29T09:38:45;10.20;89.10
43920;DHT22;29578;51.946;5.874;2022-12-29T09:41:19;10.30;89.10
43920;DHT22;29578;51.946;5.874;2022-12-29T09:44:08;10.20;89.10
43920;DHT22;29578;51.946;5.874;2022-12-29T09:46:41;10.30;89.00
43920;DHT22;29578;51.946;5.874;2022-12-29T09:49:24;10.30;88.90
43920;DHT22;29578;51.946;5.874;2022-12-29T09:51:54;10.30;88.80
43920;DHT22;29578;51.946;5.874;2022-12-29T09:57:25;10.30;88.70
43920;DHT22;29578;51.946;5.874;2022-12-29T09:59:57;10.30;88.70
43920;DHT22;29578;51.946;5.874;2022-12-29T10:02:38;10.30;88.60
43920;DHT22;29578;51.946;5.874;2022-12-29T10:05:26;10.30;88.70
43920;DHT22;29578;51.946;5.874;2022-12-29T10:08:09;10.20;88.80
43920;DHT22;29578;51.946;5.874;2022-12-29T10:10:53;10.20;88.90
43920;DHT22;29578;51.946;5.874;2022-12-29T10:13:36;10.00;89.10
43920;DHT22;29578;51.946;5.874;2022-12-29T10:16:12;10.00;89.30
43920;DHT22;29578;51.946;5.874;2022-12-29T10:19:01;10.00;89.50
43920;DHT22;29578;51.946;5.874;2022-12-29T10:21:46;9.90;89.60
43920;DHT22;29578;51.946;5.874;2022-12-29T10:24:13;9.90;89.80
43920;DHT22;29578;51.946;5.874;2022-12-29T10:26:42;9.90;89.80
43920;DHT22;29578;51.946;5.874;2022-12-29T10:29:19;9.80;89.90
43920;DHT22;29578;51.946;5.874;2022-12-29T10:32:04;9.80;90.00
43920;DHT22;29578;51.946;5.874;2022-12-29T10:34:37;9.80;90.10
43920;DHT22;29578;51.946;5.874;2022-12-29T10:39:52;9.70;90.20
43920;DHT22;29578;51.946;5.874;2022-12-29T10:42:28;9.70;90.20
43920;DHT22;29578;51.946;5.874;2022-12-29T10:44:55;9.70;90.30
43920;DHT22;29578;51.946;5.874;2022-12-29T10:47:25;9.80;90.30
43920;DHT22;29578;51.946;5.874;2022-12-29T10:49:51;9.80;90.30
43920;DHT22;29578;51.946;5.874;2022-12-29T10:52:19;9.80;90.40
43920;DHT22;29578;51.946;5.874;2022-12-29T10:54:54;9.80;90.40
43920;DHT22;29578;51.946;5.874;2022-12-29T10:57:28;9.80;90.40
43920;DHT22;29578;51.946;5.874;2022-12-29T10:59:57;9.90;90.40
43920;DHT22;29578;51.946;5.874;2022-12-29T11:02:45;9.80;90.40
43920;DHT22;29578;51.946;5.874;2022-12-29T11:05:36;9.80;90.40
43920;DHT22;29578;51.946;5.874;2022-12-29T11:08:18;9.90;90.40
43920;DHT22;29578;51.946;5.874;2022-12-29T11:10:45;9.90;90.40
43920;DHT22;29578;51.946;5.874;2022-12-29T11:13:17;9.90;90.40
43920;DHT22;29578;51.946;5.874;2022-12-29T11:15:44;9.90;90.50
43920;DHT22;29578;51.946;5.874;2022-12-29T11:18:21;10.00;90.50
43920;DHT22;29578;51.946;5.874;2022-12-29T11:20:48;10.00;90.60
43920;DHT22;29578;51.946;5.874;2022-12-29T11:23:32;10.00;90.50
43920;DHT22;29578;51.946;5.874;2022-12-29T11:26:14;10.10;90.50
43920;DHT22;29578;51.946;5.874;2022-12-29T11:28:43;10.10;90.50
43920;DHT22;29578;51.946;5.874;2022-12-29T11:31:10;10.10;90.40
43920;DHT22;29578;51.946;5.874;2022-12-29T11:33:38;10.10;90.40
43920;DHT22;29578;51.946;5.874;2022-12-29T11:36:11;10.10;90.40
43920;DHT22;29578;51.946;5.874;2022-12-29T11:38:41;10.10;90.50
43920;DHT22;29578;51.946;5.874;2022-12-29T11:41:12;10.10;90.50
43920;DHT22;29578;51.946;5.874;2022-12-29T11:43:41;10.20;90.50
43920;DHT22;29578;51.946;5.874;2022-12-29T11:46:16;10.20;90.50
43920;DHT22;29578;51.946;5.874;2022-12-29T11:48:42;10.20;90.40
43920;DHT22;29578;51.946;5.874;2022-12-29T11:51:09;10.20;90.40
43920;DHT22;29578;51.946;5.874;2022-12-29T11:53:46;10.30;90.70
43920;DHT22;29578;51.946;5.874;2022-12-29T11:56:16;10.40;90.40
43920;DHT22;29578;51.946;5.874;2022-12-29T11:58:42;10.30;90.40
43920;DHT22;29578;51.946;5.874;2022-12-29T12:01:18;10.40;90.40
43920;DHT22;29578;51.946;5.874;2022-12-29T12:03:56;10.40;90.40
43920;DHT22;29578;51.946;5.874;2022-12-29T12:06:23;10.30;90.30
43920;DHT22;29578;51.946;5.874;2022-12-29T12:08:58;10.30;90.40
43920;DHT22;29578;51.946;5.874;2022-12-29T12:11:30;10.30;90.40
43920;DHT22;29578;51.946;5.874;2022-12-29T12:14:12;10.30;90.40
43920;DHT22;29578;51.946;5.874;2022-12-29T12:16:45;10.40;90.40
43920;DHT22;29578;51.946;5.874;2022-12-29T12:19:20;10.30;90.30
43920;DHT22;29578;51.946;5.874;2022-12-29T12:21:54;10.30;90.30
43920;DHT22;29578;51.946;5.874;2022-12-29T12:24:49;10.40;90.30
43920;DHT22;29578;51.946;5.874;2022-12-29T12:27:28;10.40;90.20
43920;DHT22;29578;51.946;5.874;2022-12-29T12:30:00;10.40;90.10
43920;DHT22;29578;51.946;5.874;2022-12-29T12:36:09;10.50;90.10
43920;DHT22;29578;51.946;5.874;2022-12-29T12:38:48;10.60;90.10
43920;DHT22;29578;51.946;5.874;2022-12-29T12:41:23;10.60;90.10
43920;DHT22;29578;51.946;5.874;2022-12-29T12:50:15;10.90;89.60
43920;DHT22;29578;51.946;5.874;2022-12-29T12:53:00;10.80;89.30
43920;DHT22;29578;51.946;5.874;2022-12-29T12:55:52;11.00;89.20
43920;DHT22;29578;51.946;5.874;2022-12-29T12:58:43;10.90;89.30
43920;DHT22;29578;51.946;5.874;2022-12-29T13:01:27;10.70;89.40
43920;DHT22;29578;51.946;5.874;2022-12-29T13:04:37;10.70;89.60
43920;DHT22;29578;51.946;5.874;2022-12-29T13:10:22;10.60;89.80
43920;DHT22;29578;51.946;5.874;2022-12-29T13:13:00;10.50;89.80
43920;DHT22;29578;51.946;5.874;2022-12-29T13:18:48;10.40;89.90
43920;DHT22;29578;51.946;5.874;2022-12-29T13:24:28;10.50;90.00
43920;DHT22;29578;51.946;5.874;2022-12-29T13:27:05;10.50;90.00
43920;DHT22;29578;51.946;5.874;2022-12-29T13:29:51;10.40;90.00
43920;DHT22;29578;51.946;5.874;2022-12-29T13:32:31;10.40;90.00
43920;DHT22;29578;51.946;5.874;2022-12-29T13:37:58;10.40;90.00
43920;DHT22;29578;51.946;5.874;2022-12-29T13:40:30;10.30;90.00
43920;DHT22;29578;51.946;5.874;2022-12-29T13:43:00;10.40;90.00
43920;DHT22;29578;51.946;5.874;2022-12-29T13:45:30;10.40;90.00
43920;DHT22;29578;51.946;5.874;2022-12-29T13:50:51;10.50;90.00
43920;DHT22;29578;51.946;5.874;2022-12-29T13:53:41;10.40;89.80
43920;DHT22;29578;51.946;5.874;2022-12-29T13:56:17;10.40;89.80
43920;DHT22;29578;51.946;5.874;2022-12-29T13:58:53;10.40;89.70
43920;DHT22;29578;51.946;5.874;2022-12-29T14:01:37;10.40;89.70
43920;DHT22;29578;51.946;5.874;2022-12-29T14:04:13;10.30;90.10
43920;DHT22;29578;51.946;5.874;2022-12-29T14:06:39;10.30;89.70
43920;DHT22;29578;51.946;5.874;2022-12-29T14:09:29;10.20;89.80
43920;DHT22;29578;51.946;5.874;2022-12-29T14:11:58;10.20;90.00
43920;DHT22;29578;51.946;5.874;2022-12-29T14:14:27;10.10;90.10
43920;DHT22;29578;51.946;5.874;2022-12-29T14:16:54;10.00;90.10
43920;DHT22;29578;51.946;5.874;2022-12-29T14:19:24;10.00;90.20
43920;DHT22;29578;51.946;5.874;2022-12-29T14:21:55;10.00;90.30
43920;DHT22;29578;51.946;5.874;2022-12-29T14:24:44;10.00;90.30
43920;DHT22;29578;51.946;5.874;2022-12-29T14:30:00;9.90;90.30
43920;DHT22;29578;51.946;5.874;2022-12-29T14:32:44;9.80;90.30
43920;DHT22;29578;51.946;5.874;2022-12-29T14:35:42;9.80;90.30
43920;DHT22;29578;51.946;5.874;2022-12-29T14:38:19;9.70;90.30
43920;DHT22;29578;51.946;5.874;2022-12-29T14:40:46;9.60;90.30
43920;DHT22;29578;51.946;5.874;2022-12-29T14:43:22;9.60;90.40
43920;DHT22;29578;51.946;5.874;2022-12-29T14:45:55;9.50;90.40
43920;DHT22;29578;51.946;5.874;2022-12-29T14:48:37;9.50;90.50
43920;DHT22;29578;51.946;5.874;2022-12-29T14:51:19;9.40;90.60
43920;DHT22;29578;51.946;5.874;2022-12-29T14:53:49;9.40;90.70
43920;DHT22;29578;51.946;5.874;2022-12-29T14:56:17;9.30;90.70
43920;DHT22;29578;51.946;5.874;2022-12-29T14:58:49;9.30;90.70
43920;DHT22;29578;51.946;5.874;2022-12-29T15:01:24;9.30;90.80
43920;DHT22;29578;51.946;5.874;2022-12-29T15:03:53;9.30;90.80
43920;DHT22;29578;51.946;5.874;2022-12-29T15:06:21;9.20;90.80
43920;DHT22;29578;51.946;5.874;2022-12-29T15:08:54;9.30;90.80
43920;DHT22;29578;51.946;5.874;2022-12-29T15:11:26;9.20;90.80
43920;DHT22;29578;51.946;5.874;2022-12-29T15:13:55;9.20;90.80
43920;DHT22;29578;51.946;5.874;2022-12-29T15:16:36;9.10;90.80
43920;DHT22;29578;51.946;5.874;2022-12-29T15:19:03;9.20;90.80
43920;DHT22;29578;51.946;5.874;2022-12-29T15:21:33;9.20;90.80
43920;DHT22;29578;51.946;5.874;2022-12-29T15:23:59;9.20;90.90
43920;DHT22;29578;51.946;5.874;2022-12-29T15:26:37;9.20;90.90
43920;DHT22;29578;51.946;5.874;2022-12-29T15:29:04;9.10;91.00
43920;DHT22;29578;51.946;5.874;2022-12-29T15:31:29;9.20;91.00
43920;DHT22;29578;51.946;5.874;2022-12-29T15:34:08;9.20;91.00
43920;DHT22;29578;51.946;5.874;2022-12-29T15:36:38;9.20;91.00
43920;DHT22;29578;51.946;5.874;2022-12-29T15:39:20;9.20;91.00
43920;DHT22;29578;51.946;5.874;2022-12-29T15:41:56;9.20;91.00
43920;DHT22;29578;51.946;5.874;2022-12-29T15:44:32;9.20;91.00
43920;DHT22;29578;51.946;5.874;2022-12-29T15:47:21;9.20;91.00
43920;DHT22;29578;51.946;5.874;2022-12-29T15:49:49;9.20;91.00
43920;DHT22;29578;51.946;5.874;2022-12-29T15:52:20;9.20;91.00
43920;DHT22;29578;51.946;5.874;2022-12-29T15:54:48;9.20;91.00
43920;DHT22;29578;51.946;5.874;2022-12-29T15:57:36;9.20;91.00
43920;DHT22;29578;51.946;5.874;2022-12-29T16:00:03;9.20;91.00
43920;DHT22;29578;51.946;5.874;2022-12-29T16:02:29;9.20;91.00
43920;DHT22;29578;51.946;5.874;2022-12-29T16:04:55;9.20;91.00
43920;DHT22;29578;51.946;5.874;2022-12-29T16:07:28;9.20;91.00
43920;DHT22;29578;51.946;5.874;2022-12-29T16:09:58;9.20;91.00
43920;DHT22;29578;51.946;5.874;2022-12-29T16:12:31;9.10;90.90
43920;DHT22;29578;51.946;5.874;2022-12-29T16:14:59;9.10;90.90
43920;DHT22;29578;51.946;5.874;2022-12-29T16:17:28;9.10;90.90
43920;DHT22;29578;51.946;5.874;2022-12-29T16:20:00;9.10;91.00
43920;DHT22;29578;51.946;5.874;2022-12-29T16:22:37;9.10;91.00
43920;DHT22;29578;51.946;5.874;2022-12-29T16:27:47;9.10;91.00
43920;DHT22;29578;51.946;5.874;2022-12-29T16:30:21;9.00;90.90
43920;DHT22;29578;51.946;5.874;2022-12-29T16:32:49;9.10;90.90
43920;DHT22;29578;51.946;5.874;2022-12-29T16:35:21;9.10;90.90
43920;DHT22;29578;51.946;5.874;2022-12-29T16:38:06;9.10;90.90
43920;DHT22;29578;51.946;5.874;2022-12-29T16:40:33;9.10;90.90
43920;DHT22;29578;51.946;5.874;2022-12-29T16:43:02;9.10;90.90